KSAT/SAT METAR and TAF weather

Enter ICAO airport designator
Station Type Date Time Source
KSAT METAR 2022/09/26 09:51 UTC NOAA

KSAT 260951Z 30004KT 10SM BKN100 24/20 A3000 RMK AO2 SLP139 T02390200


Station Type Date Time Source
KSAT Decoded METAR 2022/09/26 09:51 UTC NOAA

SAN ANTONIO INTERNATIONAL AIRPORT , TX, United States (KSAT) 29-32N 098-28W 243M
Sep 26, 2022 - 05:51 AM EDT / 2022.09.26 0951 UTC
Wind: from the WNW (300 degrees) at 5 MPH (4 KT):0
Visibility: 10 mile(s):0
Sky conditions: mostly cloudy
Temperature: 75.0 F (23.9 C)
Dew Point: 68.0 F (20.0 C)
Relative Humidity: 78%
Pressure (altimeter): 30 in. Hg (1015 hPa)
ob: KSAT 260951Z 30004KT 10SM BKN100 24/20 A3000 RMK AO2 SLP139 T02390200
cycle: 10

Station Type Date Time Source
KSAT TAF 2022/09/26 06:22 UTC NOAA

TAF KSAT 260520Z 2606/2712 18005KT P6SM FEW250
FM261000 34006KT P6SM FEW250
FM261700 03010G20KT P6SM FEW250
FM270000 04008KT P6SM FEW250

Example: see airport list